Time;durP1;ratioP1;P1;durP2;ratioP2;P2;SDS_P1;SDS_P2;PMS_P1;PMS_P2;Temp;Humidity;BMP_temperature;BMP_pressure;BME280_temperature;BME280_humidity;BME280_pressure;Samples;Min_cycle;Max_cycle;Signal;HPM_P1;HPM_P2
2022/12/13 00:02:25;;;;;;;;;;;;;;;27.10;48.73;96492.70;623469;227;62943;-68
2022/12/13 00:04:53;;;;;;;;;;;;;;;27.10;47.68;96492.70;623471;227;62913;-68
2022/12/13 00:07:20;;;;;;;;;;;;;;;27.08;48.25;96495.71;623462;227;62859;-68
2022/12/13 00:09:48;;;;;;;;;;;;;;;27.09;47.07;96504.59;623450;227;65530;-68
2022/12/13 00:12:15;;;;;;;;;;;;;;;27.08;46.84;96503.80;623535;227;65006;-68
2022/12/13 00:14:42;;;;;;;;;;;;;;;27.09;47.63;96505.41;623465;227;65003;-68
2022/12/13 00:17:10;;;;;;;;;;;;;;;27.08;47.48;96498.41;623448;227;62990;-68
2022/12/13 00:19:37;;;;;;;;;;;;;;;27.08;47.71;96511.11;623493;227;63146;-68
2022/12/13 00:22:05;;;;;;;;;;;;;;;27.07;47.97;96510.33;623455;227;65040;-68
2022/12/13 00:24:32;;;;;;;;;;;;;;;27.06;48.40;96503.33;623464;227;65471;-69
2022/12/13 00:27:00;;;;;;;;;;;;;;;27.06;49.04;96507.94;623530;227;65028;-68
2022/12/13 00:29:28;;;;;;;;;;;;;;;27.05;47.08;96507.15;623414;227;63031;-68
2022/12/13 00:31:55;;;;;;;;;;;;;;;27.03;48.09;96503.98;623490;227;63238;-68
2022/12/13 00:34:23;;;;;;;;;;;;;;;27.04;47.47;96510.97;625272;227;63406;-68
2022/12/13 00:36:50;;;;;;;;;;;;;;;27.03;46.92;96509.38;625637;227;62859;-68
2022/12/13 00:39:17;;;;;;;;;;;;;;;27.03;48.63;96506.67;625677;227;63186;-68
2022/12/13 00:41:45;;;;;;;;;;;;;;;27.04;48.09;96510.16;625633;227;63343;-68
2022/12/13 00:44:13;;;;;;;;;;;;;;;27.01;47.51;96515.10;625599;227;62689;-68
2022/12/13 00:46:41;;;;;;;;;;;;;;;27.03;49.50;96522.06;625627;227;65443;-71
2022/12/13 00:49:10;;;;;;;;;;;;;;;27.01;48.07;96515.10;625638;227;65261;-71
2022/12/13 00:51:38;;;;;;;;;;;;;;;27.00;46.86;96508.11;625681;227;64988;-71
2022/12/13 00:54:05;;;;;;;;;;;;;;;27.00;48.01;96500.02;625636;227;65146;-71
2022/12/13 00:56:33;;;;;;;;;;;;;;;26.99;47.32;96494.96;625596;227;65097;-71
2022/12/13 00:59:00;;;;;;;;;;;;;;;26.99;48.47;96505.75;625596;227;65070;-71
2022/12/13 01:01:32;;;;;;;;;;;;;;;26.98;49.26;96501.45;625633;227;66144;-71
2022/12/13 01:04:00;;;;;;;;;;;;;;;26.97;48.67;96505.27;625663;227;62932;-69
2022/12/13 01:06:33;;;;;;;;;;;;;;;26.95;46.88;96502.89;625675;227;65121;-69
2022/12/13 01:09:00;;;;;;;;;;;;;;;26.97;49.16;96502.58;625564;227;65423;-70
2022/12/13 01:11:28;;;;;;;;;;;;;;;26.95;47.36;96502.09;625636;227;65164;-70
2022/12/13 01:13:55;;;;;;;;;;;;;;;26.94;47.05;96501.31;625607;227;64995;-70
2022/12/13 01:16:23;;;;;;;;;;;;;;;26.94;47.64;96501.31;625655;227;65451;-70
2022/12/13 01:18:50;;;;;;;;;;;;;;;26.94;51.08;96501.31;625672;227;65270;-70
2022/12/13 01:21:19;;;;;;;;;;;;;;;26.93;49.06;96502.44;625623;227;63085;-70
2022/12/13 01:23:47;;;;;;;;;;;;;;;26.92;47.73;96505.44;625585;227;65520;-70
2022/12/13 01:26:16;;;;;;;;;;;;;;;26.91;48.43;96501.96;625623;227;65146;-70
2022/12/13 01:28:43;;;;;;;;;;;;;;;26.91;47.97;96501.96;625608;227;62861;-69
2022/12/13 01:31:16;;;;;;;;;;;;;;;26.90;47.04;96507.66;625647;227;63311;-69
2022/12/13 01:33:43;;;;;;;;;;;;;;;26.90;47.60;96496.88;625579;227;65122;-70
2022/12/13 01:36:12;;;;;;;;;;;;;;;26.90;49.70;96504.97;625604;226;65188;-70
2022/12/13 01:38:40;;;;;;;;;;;;;;;26.88;48.41;96499.12;625608;227;65389;-70
2022/12/13 01:41:07;;;;;;;;;;;;;;;26.88;49.72;96499.12;625661;227;65000;-70
2022/12/13 01:43:39;;;;;;;;;;;;;;;26.86;48.42;96495.95;625675;227;64998;-70
2022/12/13 01:46:07;;;;;;;;;;;;;;;26.86;48.10;96495.95;625652;227;63182;-69
2022/12/13 01:48:36;;;;;;;;;;;;;;;26.86;48.49;96504.04;625561;227;65274;-69
2022/12/13 01:51:05;;;;;;;;;;;;;;;26.85;48.88;96505.16;625626;227;65164;-70
2022/12/13 01:53:33;;;;;;;;;;;;;;;26.83;49.32;96502.78;625594;227;65553;-70
2022/12/13 01:56:02;;;;;;;;;;;;;;;26.83;48.57;96520.86;625612;227;66080;-70
2022/12/13 01:58:30;;;;;;;;;;;;;;;26.82;48.59;96516.56;625665;227;62674;-70
2022/12/13 02:00:59;;;;;;;;;;;;;;;26.82;47.48;96511.17;625550;227;65486;-70
2022/12/13 02:03:26;;;;;;;;;;;;;;;26.79;49.33;96516.12;625642;227;65094;-70
2022/12/13 02:06:02;;;;;;;;;;;;;;;26.79;49.15;96518.00;625625;227;63031;-70
2022/12/13 02:08:29;;;;;;;;;;;;;;;26.78;48.91;96513.73;625520;227;65099;-70
2022/12/13 02:10:57;;;;;;;;;;;;;;;26.77;49.58;96520.24;625668;227;65251;-70
2022/12/13 02:13:24;;;;;;;;;;;;;;;26.76;49.67;96521.33;625572;227;65010;-70
2022/12/13 02:15:59;;;;;;;;;;;;;;;26.75;48.98;96528.64;625595;227;62958;-70
2022/12/13 02:18:34;;;;;;;;;;;;;;;26.74;48.33;96531.67;625394;227;63167;-70
2022/12/13 02:21:03;;;;;;;;;;;;;;;26.72;48.81;96531.97;625045;227;65003;-70
2022/12/13 02:23:32;;;;;;;;;;;;;;;26.71;48.91;96535.80;625511;227;65648;-70
2022/12/13 02:26:17;;;;;;;;;;;;;;;26.70;48.42;96539.58;625243;227;65153;-70
2022/12/13 02:28:50;;;;;;;;;;;;;;;26.70;48.71;96542.28;625667;227;65050;-69
2022/12/13 02:31:19;;;;;;;;;;;;;;;26.69;49.25;96538.01;625655;227;62986;-70
2022/12/13 02:33:48;;;;;;;;;;;;;;;26.67;48.66;96540.22;625124;227;64949;-70
2022/12/13 02:36:18;;;;;;;;;;;;;;;26.67;48.08;96534.83;623479;227;62932;-67
2022/12/13 02:38:59;;;;;;;;;;;;;;;26.66;48.79;96538.65;624862;227;63038;-67
2022/12/13 02:41:33;;;;;;;;;;;;;;;26.67;49.89;96542.13;624911;227;65601;-67
2022/12/13 02:44:10;;;;;;;;;;;;;;;26.64;49.42;96543.56;624845;227;65119;-68
2022/12/13 02:46:39;;;;;;;;;;;;;;;26.64;50.32;96546.25;624810;227;65186;-68
2022/12/13 02:49:08;;;;;;;;;;;;;;;26.64;49.26;96545.47;624853;227;64945;-67
2022/12/13 02:51:37;;;;;;;;;;;;;;;26.63;49.38;96543.87;624845;227;65030;-68
2022/12/13 02:54:05;;;;;;;;;;;;;;;26.60;49.80;96553.41;624855;227;65167;-67
2022/12/13 02:56:32;;;;;;;;;;;;;;;26.60;50.68;96548.02;624927;227;64942;-67
2022/12/13 02:59:01;;;;;;;;;;;;;;;26.61;48.33;96551.50;624852;227;65176;-68
2022/12/13 03:01:30;;;;;;;;;;;;;;;26.59;48.96;96542.94;624823;227;66240;-68
2022/12/13 03:04:02;;;;;;;;;;;;;;;26.58;49.24;96546.75;624839;227;65440;-67
2022/12/13 03:06:35;;;;;;;;;;;;;;;26.57;50.12;96559.41;624829;227;64986;-68
2022/12/13 03:09:23;;;;;;;;;;;;;;;26.56;50.10;96549.75;624838;227;63127;-67
2022/12/13 03:14:58;;;;;;;;;;;;;;;26.54;48.80;96546.58;624933;227;65442;-67
2022/12/13 03:17:25;;;;;;;;;;;;;;;26.52;50.46;96554.20;624795;227;63377;-67
2022/12/13 03:19:53;;;;;;;;;;;;;;;26.50;48.22;96548.30;624871;227;63294;-68
2022/12/13 03:22:22;;;;;;;;;;;;;;;26.50;50.04;96551.00;624848;227;66184;-67
2022/12/13 03:24:51;;;;;;;;;;;;;;;26.49;52.52;96549.40;624876;227;65087;-68
2022/12/13 03:27:18;;;;;;;;;;;;;;;26.47;50.78;96547.03;624875;227;65130;-67
2022/12/13 03:29:46;;;;;;;;;;;;;;;26.47;49.65;96552.42;624904;227;65004;-68
2022/12/13 03:32:13;;;;;;;;;;;;;;;26.46;50.05;96555.42;624865;227;65661;-68
2022/12/13 03:34:41;;;;;;;;;;;;;;;26.45;51.99;96557.33;625565;227;63973;-67
2022/12/13 03:37:08;;;;;;;;;;;;;;;26.43;51.13;96562.23;625639;227;62878;-67
2022/12/13 03:39:36;;;;;;;;;;;;;;;26.44;51.61;96563.05;625642;227;63211;-67
2022/12/13 03:42:04;;;;;;;;;;;;;;;26.43;51.09;96561.45;625677;227;63091;-68
2022/12/13 03:44:31;;;;;;;;;;;;;;;26.43;48.96;96572.23;625656;227;62863;-68
2022/12/13 03:46:59;;;;;;;;;;;;;;;26.41;50.95;96563.66;625677;227;63001;-69
2022/12/13 03:49:26;;;;;;;;;;;;;;;26.41;49.59;96563.66;625616;225;62836;-69
2022/12/13 03:51:54;;;;;;;;;;;;;;;26.40;49.68;96567.48;625636;227;63812;-69
2022/12/13 03:54:21;;;;;;;;;;;;;;;26.40;50.73;96559.40;625669;227;65309;-69
2022/12/13 03:56:48;;;;;;;;;;;;;;;26.38;51.08;96565.09;625687;227;62859;-69
2022/12/13 03:59:17;;;;;;;;;;;;;;;26.37;52.01;96562.73;625655;227;65076;-69
2022/12/13 04:01:45;;;;;;;;;;;;;;;26.35;51.81;96557.64;625637;226;65181;-68
2022/12/13 04:04:12;;;;;;;;;;;;;;;26.34;50.25;96553.38;625650;227;65086;-67
2022/12/13 04:06:40;;;;;;;;;;;;;;;26.33;50.96;96560.67;625694;227;65241;-68
2022/12/13 04:09:07;;;;;;;;;;;;;;;26.33;51.88;96570.66;625660;227;65164;-69
2022/12/13 04:14:20;;;;;;;;;;;;;;;26.31;51.86;96576.35;625638;227;62952;-70
2022/12/13 04:16:48;;;;;;;;;;;;;;;26.30;51.07;96579.34;625681;227;62878;-70
2022/12/13 04:19:15;;;;;;;;;;;;;;;26.30;52.35;96579.34;625647;225;65243;-70
2022/12/13 04:21:43;;;;;;;;;;;;;;;26.28;49.79;96576.20;625712;227;65013;-70
2022/12/13 04:24:10;;;;;;;;;;;;;;;26.26;52.04;96573.80;625678;227;65385;-70
2022/12/13 04:26:37;;;;;;;;;;;;;;;26.27;51.77;96569.20;625667;227;62988;-70
2022/12/13 04:29:05;;;;;;;;;;;;;;;26.25;52.38;96577.63;625627;227;63024;-70
2022/12/13 04:31:32;;;;;;;;;;;;;;;26.23;50.03;96585.22;625638;227;62827;-70
2022/12/13 04:34:00;;;;;;;;;;;;;;;26.22;51.63;96589.03;624124;227;62692;-70
2022/12/13 04:36:27;;;;;;;;;;;;;;;26.22;50.01;96582.83;623518;227;65017;-70
2022/12/13 04:38:55;;;;;;;;;;;;;;;26.21;51.26;96576.65;623480;227;64883;-70
2022/12/13 04:41:22;;;;;;;;;;;;;;;26.21;50.10;96587.42;623475;227;64840;-68
2022/12/13 04:43:51;;;;;;;;;;;;;;;26.20;51.59;96590.45;623472;227;65291;-68
2022/12/13 04:46:23;;;;;;;;;;;;;;;26.17;51.14;96597.25;623537;227;63237;-68
2022/12/13 04:48:50;;;;;;;;;;;;;;;26.17;51.09;96607.24;623509;227;64880;-68
2022/12/13 04:51:18;;;;;;;;;;;;;;;26.17;50.06;96613.41;623476;227;65002;-68
2022/12/13 04:53:45;;;;;;;;;;;;;;;26.16;51.01;96614.50;623473;227;65137;-68
2022/12/13 04:56:13;;;;;;;;;;;;;;;26.13;51.33;96612.44;623473;227;64959;-68
2022/12/13 04:58:40;;;;;;;;;;;;;;;26.13;50.15;96621.31;623536;227;62837;-68
2022/12/13 05:01:10;;;;;;;;;;;;;;;26.12;51.76;96616.25;623545;227;62803;-68
2022/12/13 05:03:38;;;;;;;;;;;;;;;26.11;51.77;96617.37;623496;227;62915;-68
2022/12/13 05:06:06;;;;;;;;;;;;;;;26.10;50.65;96623.84;623495;227;63097;-68
2022/12/13 05:08:33;;;;;;;;;;;;;;;26.10;52.71;96630.02;623403;227;65167;-68
2022/12/13 05:11:01;;;;;;;;;;;;;;;26.09;51.62;96627.66;623471;227;64950;-68
2022/12/13 05:13:28;;;;;;;;;;;;;;;26.07;50.68;96638.73;623548;227;64982;-68
2022/12/13 05:15:57;;;;;;;;;;;;;;;26.07;52.32;96636.03;623472;227;65127;-68
2022/12/13 05:18:25;;;;;;;;;;;;;;;26.06;51.95;96639.05;623204;227;62955;-68
2022/12/13 05:20:53;;;;;;;;;;;;;;;26.06;51.23;96644.44;623483;227;65203;-68
2022/12/13 05:23:22;;;;;;;;;;;;;;;26.04;51.20;96652.81;623457;227;65089;-68
2022/12/13 05:25:53;;;;;;;;;;;;;;;26.03;50.47;96656.63;623565;227;64616;-68
2022/12/13 05:28:24;;;;;;;;;;;;;;;26.01;50.27;96656.14;623484;227;65117;-68
2022/12/13 05:30:49;;;;;;;;;;;;;;;26.04;52.01;96662.80;623380;227;64921;-68
2022/12/13 05:33:18;;;;;;;;;;;;;;;26.03;50.77;96659.32;624306;227;65068;-68
2022/12/13 05:35:46;;;;;;;;;;;;;;;26.02;52.65;96657.72;625589;227;65024;-68
2022/12/13 05:38:14;;;;;;;;;;;;;;;26.02;51.88;96663.10;625680;227;64837;-68
2022/12/13 05:40:42;;;;;;;;;;;;;;;26.01;51.75;96658.83;625648;227;64925;-68
2022/12/13 05:43:11;;;;;;;;;;;;;;;26.02;50.89;96670.39;625490;227;65278;-68
2022/12/13 05:45:38;;;;;;;;;;;;;;;26.04;50.27;96660.11;625441;226;62916;-67
2022/12/13 05:48:06;;;;;;;;;;;;;;;26.03;50.42;96653.15;625613;227;62834;-67
2022/12/13 05:50:33;;;;;;;;;;;;;;;26.04;51.52;96652.03;625694;227;62894;-67
2022/12/13 05:53:02;;;;;;;;;;;;;;;26.03;51.44;96658.53;625618;227;64627;-67
2022/12/13 05:55:30;;;;;;;;;;;;;;;26.04;51.19;96663.59;625658;227;62942;-67
2022/12/13 05:57:58;;;;;;;;;;;;;;;26.04;50.22;96668.19;625619;227;62862;-68
2022/12/13 06:00:26;;;;;;;;;;;;;;;26.05;51.87;96667.07;625612;227;63260;-67
2022/12/13 06:02:53;;;;;;;;;;;;;;;26.05;49.20;96662.47;625656;225;62945;-67
2022/12/13 06:05:21;;;;;;;;;;;;;;;26.07;48.73;96673.73;625631;227;64969;-68
2022/12/13 06:07:48;;;;;;;;;;;;;;;26.08;50.41;96669.13;625666;227;63005;-67
2022/12/13 06:10:16;;;;;;;;;;;;;;;26.09;50.57;96684.20;625649;227;62927;-67
2022/12/13 06:12:43;;;;;;;;;;;;;;;26.10;51.28;96683.09;625614;226;62945;-67
2022/12/13 06:15:11;;;;;;;;;;;;;;;26.09;49.94;96676.91;625695;227;63756;-69
2022/12/13 06:17:38;;;;;;;;;;;;;;;26.11;50.71;96679.31;625610;227;64948;-68
2022/12/13 06:20:06;;;;;;;;;;;;;;;26.12;48.82;96692.45;625602;227;64888;-67
2022/12/13 06:22:34;;;;;;;;;;;;;;;26.13;50.33;96694.02;625592;227;65219;-67
2022/12/13 06:25:06;;;;;;;;;;;;;;;26.13;50.55;96704.80;625642;227;64906;-67
2022/12/13 06:27:31;;;;;;;;;;;;;;;26.15;49.19;96699.11;625242;227;62558;-67
2022/12/13 06:29:58;;;;;;;;;;;;;;;26.17;51.23;96698.81;625651;226;62896;-70
2022/12/13 06:32:26;;;;;;;;;;;;;;;26.18;51.23;96701.17;625427;226;63748;-70
2022/12/13 06:34:54;;;;;;;;;;;;;;;26.20;50.24;96698.19;623471;227;65118;-70
2022/12/13 06:37:21;;;;;;;;;;;;;;;26.21;50.66;96702.45;623471;227;65233;-70
2022/12/13 06:39:49;;;;;;;;;;;;;;;26.22;50.25;96696.77;623530;227;64369;-70
2022/12/13 06:42:17;;;;;;;;;;;;;;;26.24;49.08;96708.00;623513;227;64882;-70
2022/12/13 06:44:45;;;;;;;;;;;;;;;26.25;49.31;96706.91;623485;227;62717;-70
2022/12/13 06:47:13;;;;;;;;;;;;;;;26.26;50.70;96711.18;623424;227;63615;-70
2022/12/13 06:49:42;;;;;;;;;;;;;;;26.28;48.80;96713.58;622495;227;63179;-70
2022/12/13 06:52:15;;;;;;;;;;;;;;;26.29;49.78;96720.54;623418;227;64723;-70
2022/12/13 06:54:40;;;;;;;;;;;;;;;26.31;48.76;96711.04;623147;227;62010;-70
2022/12/13 06:57:07;;;;;;;;;;;;;;;26.32;49.19;96718.00;623480;227;63045;-70
2022/12/13 06:59:36;;;;;;;;;;;;;;;26.33;49.94;96716.92;623461;227;64885;-70
2022/12/13 07:02:04;;;;;;;;;;;;;;;26.34;49.95;96713.11;623453;227;65695;-71
2022/12/13 07:04:32;;;;;;;;;;;;;;;26.35;48.94;96716.59;623457;227;64832;-70
2022/12/13 07:07:01;;;;;;;;;;;;;;;26.35;48.89;96717.41;623464;227;64712;-72
2022/12/13 07:09:32;;;;;;;;;;;;;;;26.37;47.91;96721.67;623423;227;64948;-67
2022/12/13 07:12:00;;;;;;;;;;;;;;;26.38;47.40;96725.95;623407;227;62657;-69
2022/12/13 07:14:29;;;;;;;;;;;;;;;26.39;48.13;96725.64;623334;227;65458;-68
2022/12/13 07:16:58;;;;;;;;;;;;;;;26.39;49.00;96722.16;623709;227;66575;-68
2022/12/13 07:19:25;;;;;;;;;;;;;;;26.39;48.32;96722.16;625542;227;63013;-68
2022/12/13 07:21:53;;;;;;;;;;;;;;;26.40;48.82;96729.13;625414;227;62997;-69
2022/12/13 07:24:20;;;;;;;;;;;;;;;26.40;46.53;96729.91;625545;227;63802;-68
2022/12/13 07:26:48;;;;;;;;;;;;;;;26.42;48.30;96738.48;625354;227;65017;-68
2022/12/13 07:29:15;;;;;;;;;;;;;;;26.44;49.99;96730.11;625541;227;62797;-68
2022/12/13 07:31:43;;;;;;;;;;;;;;;26.46;49.53;96738.65;625500;227;64903;-68
2022/12/13 07:34:10;;;;;;;;;;;;;;;26.48;48.83;96739.14;625559;226;62885;-68
2022/12/13 07:36:38;;;;;;;;;;;;;;;26.49;49.12;96732.63;625474;227;65166;-68
2022/12/13 07:39:06;;;;;;;;;;;;;;;26.48;48.30;96741.83;625585;227;62806;-69
2022/12/13 07:41:34;;;;;;;;;;;;;;;26.48;47.43;96752.61;625529;227;65062;-68
2022/12/13 07:44:01;;;;;;;;;;;;;;;26.48;47.20;96747.22;625513;227;65276;-69
2022/12/13 07:46:29;;;;;;;;;;;;;;;26.48;48.29;96745.31;625628;227;66028;-68
2022/12/13 07:48:57;;;;;;;;;;;;;;;26.48;47.03;96753.39;625533;227;65023;-69
2022/12/13 07:51:26;;;;;;;;;;;;;;;26.50;46.90;96751.19;625480;227;62840;-68
2022/12/13 07:53:53;;;;;;;;;;;;;;;26.51;47.54;96746.62;625560;227;65721;-68
2022/12/13 07:56:21;;;;;;;;;;;;;;;26.53;47.95;96763.28;625537;227;65124;-66
2022/12/13 07:58:48;;;;;;;;;;;;;;;26.53;47.56;96760.58;625575;227;65418;-68
2022/12/13 08:01:17;;;;;;;;;;;;;;;26.54;47.08;96756.77;625632;227;63482;-67
2022/12/13 08:03:46;;;;;;;;;;;;;;;26.55;47.14;96763.77;625486;227;65016;-68
2022/12/13 08:06:18;;;;;;;;;;;;;;;26.56;47.75;96770.73;625516;227;66461;-70
2022/12/13 08:08:45;;;;;;;;;;;;;;;26.56;48.20;96770.73;625600;227;63081;-68
2022/12/13 08:11:15;;;;;;;;;;;;;;;26.56;47.76;96776.91;625477;227;64850;-67
2022/12/13 08:13:43;;;;;;;;;;;;;;;26.58;47.19;96773.12;625496;227;65464;-68
2022/12/13 08:16:11;;;;;;;;;;;;;;;26.60;47.61;96778.98;625512;227;63829;-68
2022/12/13 08:18:39;;;;;;;;;;;;;;;26.60;49.20;96781.67;625593;227;63915;-69
2022/12/13 08:21:12;;;;;;;;;;;;;;;26.59;49.33;96783.58;625530;227;62756;-69
2022/12/13 08:23:37;;;;;;;;;;;;;;;26.59;48.86;96791.66;625176;226;65368;-68
2022/12/13 08:28:42;;;;;;;;;;;;;;;26.61;49.11;96781.38;602624;235;36882;-68
2022/12/13 08:31:12;;;;;;;;;;;;;;;26.62;44.58;96774.86;602917;232;65200;-68
2022/12/13 08:33:40;;;;;;;;;;;;;;;26.67;45.18;96784.72;602570;235;64917;-69
2022/12/13 08:36:11;;;;;;;;;;;;;;;26.69;44.15;96785.98;602595;235;63542;-68
2022/12/13 08:38:38;;;;;;;;;;;;;;;26.72;46.81;96789.96;604032;232;65484;-68
2022/12/13 08:41:07;;;;;;;;;;;;;;;26.74;47.99;96785.06;603526;232;62752;-69
2022/12/13 08:43:35;;;;;;;;;;;;;;;26.71;48.94;96778.39;611313;232;65697;-69
2022/12/13 08:46:04;;;;;;;;;;;;;;;26.70;49.42;96782.17;611370;232;44990;-68
2022/12/13 08:48:32;;;;;;;;;;;;;;;26.70;51.03;96779.48;605335;232;62937;-69
2022/12/13 08:51:01;;;;;;;;;;;;;;;26.70;48.76;96768.70;602576;235;63194;-67
2022/12/13 08:53:30;;;;;;;;;;;;;;;26.70;50.13;96778.69;602598;235;64881;-70
2022/12/13 08:56:01;;;;;;;;;;;;;;;26.70;49.13;96771.39;602609;235;65111;-70
2022/12/13 08:58:29;;;;;;;;;;;;;;;26.71;48.96;96775.70;602563;235;65463;-69
2022/12/13 09:00:56;;;;;;;;;;;;;;;26.71;44.35;96770.30;608462;231;65242;-70
2022/12/13 09:03:24;;;;;;;;;;;;;;;26.74;46.70;96766.98;608622;233;65134;-67
2022/12/13 09:05:51;;;;;;;;;;;;;;;26.76;45.01;96767.46;607305;233;65556;-69
2022/12/13 09:08:19;;;;;;;;;;;;;;;26.78;47.52;96773.31;603139;235;65004;-72
2022/12/13 09:10:48;;;;;;;;;;;;;;;26.79;49.11;96758.74;603770;231;65024;-67
2022/12/13 09:13:16;;;;;;;;;;;;;;;26.77;48.75;96757.47;610208;231;61643;-68
2022/12/13 09:15:43;;;;;;;;;;;;;;;26.76;48.22;96758.56;608549;232;66620;-67
2022/12/13 09:18:10;;;;;;;;;;;;;;;26.76;48.12;96748.59;609788;232;63048;-68
2022/12/13 09:20:40;;;;;;;;;;;;;;;26.75;47.94;96741.59;609836;232;65396;-69
2022/12/13 09:23:07;;;;;;;;;;;;;;;26.77;47.23;96747.47;608234;232;64076;-67
2022/12/13 09:25:34;;;;;;;;;;;;;;;26.78;45.75;96745.56;609546;232;66912;-67
2022/12/13 09:28:02;;;;;;;;;;;;;;;26.80;48.21;96740.66;609059;232;65421;-67
2022/12/13 09:30:29;;;;;;;;;;;;;;;26.81;47.56;96723.36;609081;232;65056;-72
2022/12/13 09:32:57;;;;;;;;;;;;;;;26.81;47.65;96723.36;612220;232;65008;-68
2022/12/13 09:35:24;;;;;;;;;;;;;;;26.85;46.13;96723.55;612178;232;65157;-67
2022/12/13 09:37:52;;;;;;;;;;;;;;;26.87;47.21;96710.52;611424;232;65233;-67
2022/12/13 09:40:21;;;;;;;;;;;;;;;26.88;46.68;96698.64;608895;233;65100;-67
2022/12/13 09:42:50;;;;;;;;;;;;;;;26.90;46.21;96699.91;608933;233;63295;-69
2022/12/13 09:45:17;;;;;;;;;;;;;;;26.93;47.80;96695.80;608937;233;63160;-68
2022/12/13 09:47:46;;;;;;;;;;;;;;;26.95;45.97;96701.64;608911;233;65188;-69
2022/12/13 09:50:16;;;;;;;;;;;;;;;26.96;47.17;96690.55;608936;233;65592;-68
2022/12/13 09:52:44;;;;;;;;;;;;;;;26.98;45.48;96682.94;608810;232;63122;-68
2022/12/13 09:55:16;;;;;;;;;;;;;;;27.00;47.04;96686.09;608898;233;65006;-68
2022/12/13 09:57:44;;;;;;;;;;;;;;;27.02;44.63;96685.78;608814;232;65612;-68
2022/12/13 10:00:13;;;;;;;;;;;;;;;27.05;46.75;96685.14;608823;233;65149;-68
2022/12/13 10:02:49;;;;;;;;;;;;;;;27.06;46.49;96669.75;608872;233;65062;-69
2022/12/13 10:05:18;;;;;;;;;;;;;;;27.08;44.48;96668.33;609134;232;65728;-68
2022/12/13 10:07:45;;;;;;;;;;;;;;;27.10;45.09;96676.89;610749;232;65220;-67
2022/12/13 10:10:13;;;;;;;;;;;;;;;27.12;43.90;96673.86;608861;233;64792;-67
2022/12/13 10:12:43;;;;;;;;;;;;;;;27.14;44.60;96671.64;608821;233;65724;-67
2022/12/13 10:15:12;;;;;;;;;;;;;;;27.15;47.09;96667.86;608795;233;65248;-69
2022/12/13 10:17:40;;;;;;;;;;;;;;;27.18;46.37;96667.24;608846;233;63024;-68
2022/12/13 10:20:10;;;;;;;;;;;;;;;27.18;46.16;96670.73;608850;233;67437;-68
2022/12/13 10:22:41;;;;;;;;;;;;;;;27.20;46.48;96675.78;608691;232;64840;-73
2022/12/13 10:25:11;;;;;;;;;;;;;;;27.21;45.95;96666.60;608701;233;42565;-66
2022/12/13 10:27:45;;;;;;;;;;;;;;;27.18;43.84;96662.64;609720;232;65480;-66
2022/12/13 10:30:14;;;;;;;;;;;;;;;27.22;47.32;96660.08;610492;232;65515;-68
2022/12/13 10:32:43;;;;;;;;;;;;;;;27.21;46.42;96656.59;610540;232;63054;-68
2022/12/13 10:35:21;;;;;;;;;;;;;;;27.19;46.99;96656.12;610380;232;63215;-67
2022/12/13 10:37:48;;;;;;;;;;;;;;;27.19;48.26;96658.03;610061;232;63968;-67
2022/12/13 10:40:26;;;;;;;;;;;;;;;27.17;48.84;96639.48;609350;232;65058;-68
2022/12/13 10:42:59;;;;;;;;;;;;;;;27.18;46.18;96645.66;610539;232;63368;-69
2022/12/13 10:45:26;;;;;;;;;;;;;;;27.19;45.63;96633.75;610037;232;62692;-67
2022/12/13 10:47:53;;;;;;;;;;;;;;;27.20;47.46;96636.14;610568;232;62978;-67
2022/12/13 10:50:22;;;;;;;;;;;;;;;27.21;43.63;96636.92;610448;232;64648;-67
2022/12/13 10:52:50;;;;;;;;;;;;;;;27.22;47.99;96641.20;610576;232;62877;-67
2022/12/13 10:55:20;;;;;;;;;;;;;;;27.22;47.87;96641.98;609700;232;65022;-67
2022/12/13 10:57:55;;;;;;;;;;;;;;;27.22;46.59;96639.29;609873;232;65472;-67
2022/12/13 11:00:33;;;;;;;;;;;;;;;27.24;48.67;96636.28;610501;232;65158;-67
2022/12/13 11:03:00;;;;;;;;;;;;;;;27.24;47.00;96617.39;610490;232;63281;-68
2022/12/13 11:05:29;;;;;;;;;;;;;;;27.26;46.35;96625.19;610491;232;62998;-68
2022/12/13 11:07:58;;;;;;;;;;;;;;;27.27;46.78;96621.36;610466;232;64920;-68
2022/12/13 11:10:27;;;;;;;;;;;;;;;27.26;47.23;96619.78;609862;232;65179;-67
2022/12/13 11:13:03;;;;;;;;;;;;;;;27.27;47.54;96607.88;610419;232;65865;-68
2022/12/13 11:15:31;;;;;;;;;;;;;;;27.28;47.01;96612.14;610336;232;63009;-68
2022/12/13 11:18:00;;;;;;;;;;;;;;;27.29;48.41;96608.34;610272;232;64944;-68
2022/12/13 11:20:30;;;;;;;;;;;;;;;27.29;46.86;96603.74;610345;232;65578;-68
2022/12/13 11:23:08;;;;;;;;;;;;;;;27.30;48.18;96601.83;610520;232;65192;-67
2022/12/13 11:25:42;;;;;;;;;;;;;;;27.30;47.63;96593.73;610282;232;62976;-66
2022/12/13 11:28:17;;;;;;;;;;;;;;;27.31;48.63;96589.91;610032;232;63034;-66
2022/12/13 11:31:01;;;;;;;;;;;;;;;27.31;47.24;96579.13;609963;232;65162;-67
2022/12/13 11:33:49;;;;;;;;;;;;;;;27.32;48.85;96583.42;609766;232;63632;-67
2022/12/13 11:36:38;;;;;;;;;;;;;;;27.32;46.91;96586.91;605022;232;65505;-68
2022/12/13 11:39:15;;;;;;;;;;;;;;;27.30;42.72;96585.64;604297;235;65179;-67
2022/12/13 11:41:46;;;;;;;;;;;;;;;27.38;46.89;96584.82;604329;235;47251;-67
2022/12/13 11:44:27;;;;;;;;;;;;;;;27.42;46.46;96572.28;604221;235;65568;-68
2022/12/13 11:46:56;;;;;;;;;;;;;;;27.44;44.94;96578.13;604261;235;63586;-67
2022/12/13 11:49:31;;;;;;;;;;;;;;;27.45;44.29;96568.93;604373;235;65329;-68
2022/12/13 11:52:18;;;;;;;;;;;;;;;27.47;42.36;96574.77;604095;235;65691;-70
2022/12/13 11:55:02;;;;;;;;;;;;;;;27.49;42.31;96577.95;604237;235;65354;-70
2022/12/13 11:57:31;;;;;;;;;;;;;;;27.53;46.12;96568.10;604311;235;63090;-69
2022/12/13 12:00:00;;;;;;;;;;;;;;;27.53;46.05;96562.70;604074;235;63485;-68
2022/12/13 12:02:30;;;;;;;;;;;;;;;27.54;44.59;96569.67;601506;235;63974;-69
2022/12/13 12:04:58;;;;;;;;;;;;;;;27.56;43.98;96572.85;604359;235;63219;-70
2022/12/13 12:07:45;;;;;;;;;;;;;;;27.58;45.59;96578.72;604251;235;63041;-69
2022/12/13 12:10:15;;;;;;;;;;;;;;;27.57;45.25;96571.72;604357;235;66028;-69
2022/12/13 12:12:44;;;;;;;;;;;;;;;27.59;44.17;96571.41;604359;235;65152;-69
2022/12/13 12:15:16;;;;;;;;;;;;;;;27.59;44.24;96561.40;604120;235;65909;-70
2022/12/13 12:17:44;;;;;;;;;;;;;;;27.59;45.07;96563.31;603868;235;65301;-69
2022/12/13 12:20:16;;;;;;;;;;;;;;;27.60;45.09;96557.58;604301;235;64850;-69
2022/12/13 12:23:04;;;;;;;;;;;;;;;27.60;43.50;96570.28;604291;235;62787;-68
2022/12/13 12:25:39;;;;;;;;;;;;;;;27.62;46.00;96568.84;604323;235;63205;-69
2022/12/13 12:28:09;;;;;;;;;;;;;;;27.62;44.38;96558.05;611265;231;63161;-70
2022/12/13 12:30:38;;;;;;;;;;;;;;;27.62;45.38;96555.34;613515;231;63385;-69
2022/12/13 12:33:13;;;;;;;;;;;;;;;27.62;43.91;96568.06;613225;231;63175;-69
2022/12/13 12:35:58;;;;;;;;;;;;;;;27.61;44.25;96572.67;613425;231;63016;-68
2022/12/13 12:38:37;;;;;;;;;;;;;;;27.63;45.63;96575.81;613442;231;65729;-68
2022/12/13 12:41:06;;;;;;;;;;;;;;;27.63;47.08;96575.03;613491;231;65508;-68
2022/12/13 12:43:36;;;;;;;;;;;;;;;27.62;46.89;96579.64;612989;231;65733;-68
2022/12/13 12:46:15;;;;;;;;;;;;;;;27.63;47.13;96578.52;613503;231;63092;-68
2022/12/13 12:48:47;;;;;;;;;;;;;;;27.61;46.44;96578.07;613509;231;65382;-69
2022/12/13 12:51:15;;;;;;;;;;;;;;;27.61;45.83;96569.16;613440;231;62910;-68
2022/12/13 12:54:01;;;;;;;;;;;;;;;27.60;46.61;96578.38;613244;231;65748;-68
2022/12/13 12:56:36;;;;;;;;;;;;;;;27.59;45.16;96579.51;613498;231;65175;-69
2022/12/13 12:59:05;;;;;;;;;;;;;;;27.57;46.32;96574.42;613094;231;65103;-68
2022/12/13 13:01:51;;;;;;;;;;;;;;;27.57;47.08;96582.52;600107;231;65443;-68
2022/12/13 13:04:21;;;;;;;;;;;;;;;27.56;46.70;96580.95;613406;231;65679;-68
2022/12/13 13:06:52;;;;;;;;;;;;;;;27.55;45.80;96583.95;613295;231;46035;-67
2022/12/13 13:09:23;;;;;;;;;;;;;;;27.54;45.02;96591.27;613245;231;65441;-68